Time;durP1;ratioP1;P1;durP2;ratioP2;P2;SDS_P1;SDS_P2;PMS_P1;PMS_P2;Temp;Humidity;BMP_temperature;BMP_pressure;BME280_temperature;BME280_humidity;BME280_pressure;Samples;Min_cycle;Max_cycle;Signal;HPM_P1;HPM_P2
2023/08/25 00:00:24;;;;;;;10.93;6.38;;;;;;;11.26;93.23;99197.03;4875558;29;20047;-75
2023/08/25 00:02:49;;;;;;;11.52;7.22;;;;;;;11.23;93.55;99214.13;4891935;29;20051;-74
2023/08/25 00:05:15;;;;;;;14.00;7.65;;;;;;;11.22;93.69;99204.44;4875485;29;20051;-74
2023/08/25 00:07:40;;;;;;;18.55;6.25;;;;;;;11.22;93.65;99204.44;4908690;29;20507;-76
2023/08/25 00:10:06;;;;;;;13.57;6.72;;;;;;;11.19;93.90;99212.66;4908375;29;20046;-75
2023/08/25 00:12:31;;;;;;;12.80;7.82;;;;;;;11.16;94.25;99207.59;4892099;29;20421;-75
2023/08/25 00:14:56;;;;;;;13.57;6.90;;;;;;;11.17;93.82;99203.13;4898495;29;20058;-75
2023/08/25 00:17:22;;;;;;;16.73;7.43;;;;;;;11.16;94.12;99201.41;4920447;29;20039;-76
2023/08/25 00:19:47;;;;;;;15.45;7.07;;;;;;;11.13;94.15;99223.84;4902529;29;20047;-76
2023/08/25 00:22:13;;;;;;;15.40;7.40;;;;;;;11.12;94.44;99198.16;4901241;29;20055;-74
2023/08/25 00:24:38;;;;;;;17.65;6.75;;;;;;;11.11;94.15;99193.78;4901335;29;20051;-74
2023/08/25 00:27:03;;;;;;;10.93;6.75;;;;;;;11.09;95.00;99187.72;4900126;29;20426;-74
2023/08/25 00:29:29;;;;;;;9.65;6.18;;;;;;;11.08;94.75;99198.50;4918152;29;20055;-74
2023/08/25 00:31:54;;;;;;;11.88;6.88;;;;;;;11.07;95.43;99197.66;4908268;29;20055;-75
2023/08/25 00:34:19;;;;;;;15.05;7.38;;;;;;;11.04;95.15;99208.59;4905597;28;20051;-74
2023/08/25 00:36:45;;;;;;;13.07;7.28;;;;;;;11.04;95.42;99192.59;4919461;29;20054;-74
2023/08/25 00:39:10;;;;;;;16.85;7.60;;;;;;;11.01;95.52;99191.97;4912493;28;20055;-75
2023/08/25 00:41:36;;;;;;;16.25;7.78;;;;;;;10.99;95.24;99194.75;4918758;28;20078;-74
2023/08/25 00:44:02;;;;;;;15.98;6.75;;;;;;;10.95;95.46;99190.63;4934000;28;20053;-75
2023/08/25 00:46:28;;;;;;;13.70;7.00;;;;;;;10.93;95.65;99210.41;4920519;28;20058;-74
2023/08/25 00:48:53;;;;;;;15.20;6.70;;;;;;;10.90;95.27;99182.16;4926722;28;20058;-74
2023/08/25 00:51:25;;;;;;;9.80;6.88;;;;;;;10.88;95.35;99187.63;4937320;28;20520;-74
2023/08/25 00:53:51;;;;;;;15.13;6.53;;;;;;;10.85;95.48;99203.00;4920922;28;20409;-77
2023/08/25 00:56:18;;;;;;;16.05;6.95;;;;;;;10.82;95.49;99196.13;4937108;28;20486;-70
2023/08/25 00:58:44;;;;;;;10.77;6.40;;;;;;;10.84;95.68;99206.66;4920046;28;20453;-73
2023/08/25 01:01:12;;;;;;;11.68;6.90;;;;;;;10.82;95.76;99208.59;4919661;28;20512;-72
2023/08/25 01:03:39;;;;;;;10.27;6.15;;;;;;;10.79;95.88;99214.19;4903172;28;20058;-70
2023/08/25 01:06:08;;;;;;;10.82;6.85;;;;;;;10.76;96.07;99204.59;4904006;28;20050;-72
2023/08/25 01:08:34;;;;;;;11.63;6.68;;;;;;;10.74;96.08;99232.34;4936772;28;20047;-70
2023/08/25 01:11:34;;;;;;;10.07;7.00;;;;;;;10.79;96.86;99209.69;4935466;28;20046;-68
2023/08/25 01:14:12;;;;;;;12.60;7.28;;;;;;;10.77;96.29;99210.78;4919871;28;20054;-71
2023/08/25 01:16:45;;;;;;;10.88;7.35;;;;;;;10.74;96.83;99206.53;4935995;28;20046;-73
2023/08/25 01:19:28;;;;;;;16.77;7.53;;;;;;;10.77;96.47;99226.78;4920068;28;20417;-72
2023/08/25 01:21:58;;;;;;;9.68;6.30;;;;;;;10.72;96.87;99223.63;4903869;28;20057;-70
2023/08/25 01:24:29;;;;;;;13.27;7.20;;;;;;;10.70;96.86;99225.56;4919364;28;20508;-70
2023/08/25 01:26:54;;;;;;;10.57;6.78;;;;;;;10.67;97.24;99226.66;4936926;28;20039;-71
2023/08/25 01:29:20;;;;;;;14.05;6.68;;;;;;;10.65;97.37;99222.41;4918299;28;20512;-72
2023/08/25 01:31:45;;;;;;;11.88;6.60;;;;;;;10.64;97.17;99226.03;4935926;28;20043;-70
2023/08/25 01:34:13;;;;;;;9.82;6.38;;;;;;;10.62;97.47;99222.63;4919110;28;20054;-70
2023/08/25 01:36:43;;;;;;;13.25;6.32;;;;;;;10.61;97.34;99247.63;4936265;28;20405;-72
2023/08/25 01:39:15;;;;;;;10.68;7.05;;;;;;;10.63;97.05;99219.84;4908513;29;20055;-70
2023/08/25 01:41:54;;;;;;;11.95;6.38;;;;;;;10.61;97.29;99242.28;4902046;29;20438;-71
2023/08/25 01:44:21;;;;;;;9.65;6.15;;;;;;;10.56;97.59;99213.31;4913316;29;20058;-70
2023/08/25 01:46:50;;;;;;;11.00;6.38;;;;;;;10.54;97.11;99220.59;4903509;29;20047;-70
2023/08/25 01:49:17;;;;;;;11.05;7.28;;;;;;;10.51;97.30;99216.34;4871481;29;20051;-71
2023/08/25 01:51:44;;;;;;;8.70;6.05;;;;;;;10.49;97.11;99223.63;4894774;29;20051;-70
2023/08/25 01:54:13;;;;;;;10.30;6.53;;;;;;;10.46;97.31;99210.53;4916466;29;20043;-70
2023/08/25 01:56:39;;;;;;;8.85;5.60;;;;;;;10.44;96.84;99209.78;4915634;29;20060;-73
2023/08/25 01:59:04;;;;;;;8.68;5.68;;;;;;;10.40;96.62;99216.31;4897617;29;20040;-72
2023/08/25 02:01:30;;;;;;;11.68;7.60;;;;;;;10.37;97.01;99213.91;4899962;29;20047;-73
2023/08/25 02:03:56;;;;;;;10.48;6.60;;;;;;;10.34;96.58;99206.16;4898751;29;20589;-74
2023/08/25 02:06:24;;;;;;;9.70;6.05;;;;;;;10.34;96.72;99218.63;4891976;29;20073;-73
2023/08/25 02:08:49;;;;;;;8.15;5.53;;;;;;;10.33;96.96;99238.22;4899557;29;20406;-75
2023/08/25 02:11:14;;;;;;;9.32;5.63;;;;;;;10.31;96.78;99218.84;4890826;29;20046;-73
2023/08/25 02:13:43;;;;;;;10.00;6.78;;;;;;;10.28;97.24;99219.06;4917520;29;20047;-72
2023/08/25 02:16:09;;;;;;;10.18;6.13;;;;;;;10.26;97.01;99213.03;4916255;29;20058;-72
2023/08/25 02:18:34;;;;;;;8.57;6.25;;;;;;;10.24;97.04;99215.81;4902301;29;20058;-73
2023/08/25 02:20:59;;;;;;;9.93;6.45;;;;;;;10.22;97.23;99220.41;4899350;29;20498;-70
2023/08/25 02:23:24;;;;;;;14.68;7.07;;;;;;;10.20;97.32;99217.00;4918966;29;20054;-72
2023/08/25 02:25:52;;;;;;;8.20;6.07;;;;;;;10.18;97.32;99234.91;4903971;29;20043;-74
2023/08/25 02:28:17;;;;;;;12.43;6.45;;;;;;;10.18;97.40;99234.91;4887444;29;20101;-70
2023/08/25 02:30:42;;;;;;;9.85;6.35;;;;;;;10.14;97.80;99233.44;4916282;29;20051;-73
2023/08/25 02:33:07;;;;;;;10.60;6.70;;;;;;;10.13;97.54;99235.25;4882183;29;20058;-74
2023/08/25 02:35:33;;;;;;;14.38;6.85;;;;;;;10.13;98.48;99237.06;4905184;29;20533;-75
2023/08/25 02:38:04;;;;;;;10.07;6.45;;;;;;;10.16;98.51;99210.19;4931772;28;20070;-73
2023/08/25 02:40:30;;;;;;;16.10;6.32;;;;;;;10.13;98.09;99235.25;4923654;28;20520;-80
2023/08/25 02:42:57;;;;;;;9.68;5.57;;;;;;;10.15;98.17;99249.31;4905357;28;20061;-72
2023/08/25 02:45:25;;;;;;;8.88;6.13;;;;;;;10.18;98.45;99235.78;4919891;28;20058;-74
2023/08/25 02:47:51;;;;;;;12.80;6.75;;;;;;;10.19;98.75;99232.16;4922456;28;20485;-73
2023/08/25 02:50:17;;;;;;;12.52;5.90;;;;;;;10.20;98.42;99238.31;4906144;28;20059;-72
2023/08/25 02:52:42;;;;;;;11.02;5.88;;;;;;;10.22;98.22;99225.75;4922460;28;20051;-76
2023/08/25 02:55:07;;;;;;;9.77;5.53;;;;;;;10.27;97.98;99244.03;4922095;28;20058;-71
2023/08/25 02:57:33;;;;;;;15.75;6.60;;;;;;;10.33;98.48;99217.78;4922173;28;20058;-77
2023/08/25 02:59:58;;;;;;;9.90;6.68;;;;;;;10.44;98.16;99235.59;4939034;28;20409;-76
2023/08/25 03:02:23;;;;;;;9.52;5.57;;;;;;;10.53;97.67;99232.22;4921868;28;20054;-76
2023/08/25 03:04:49;;;;;;;11.15;6.57;;;;;;;10.65;97.44;99233.06;4908619;28;20058;-76
2023/08/25 03:07:15;;;;;;;14.85;6.55;;;;;;;10.77;97.64;99232.09;4908377;28;20051;-76
2023/08/25 03:09:40;;;;;;;9.50;6.07;;;;;;;10.89;96.75;99258.66;4923202;28;20740;-72
2023/08/25 03:12:06;;;;;;;12.00;6.40;;;;;;;11.03;95.80;99233.56;4908591;29;20043;-72
2023/08/25 03:14:31;;;;;;;8.98;5.70;;;;;;;11.14;95.28;99230.03;4922185;29;20046;-76
2023/08/25 03:16:57;;;;;;;8.90;6.10;;;;;;;11.27;94.52;99236.09;4890243;28;20058;-78
2023/08/25 03:19:22;;;;;;;12.80;6.70;;;;;;;11.39;93.95;99239.59;4922006;28;20073;-75
2023/08/25 03:21:47;;;;;;;17.95;6.72;;;;;;;11.50;93.44;99245.75;4928261;28;20051;-75
2023/08/25 03:24:13;;;;;;;10.18;6.53;;;;;;;11.63;92.65;99237.56;4931970;28;20053;-76
2023/08/25 03:26:38;;;;;;;16.15;6.85;;;;;;;11.77;91.83;99255.16;4889789;28;20792;-75
2023/08/25 03:29:05;;;;;;;9.30;6.25;;;;;;;11.92;91.37;99244.06;4885977;29;20051;-76
2023/08/25 03:31:30;;;;;;;13.93;6.78;;;;;;;12.04;90.57;99268.91;4898449;29;20062;-76
2023/08/25 03:33:56;;;;;;;9.57;6.50;;;;;;;12.20;89.98;99263.94;4886861;29;20062;-75
2023/08/25 03:36:22;;;;;;;13.20;6.50;;;;;;;12.37;89.05;99243.81;4919901;29;20493;-74
2023/08/25 03:38:47;;;;;;;15.77;6.97;;;;;;;12.51;88.30;99262.22;4918759;28;20055;-75
2023/08/25 03:41:12;;;;;;;11.43;6.78;;;;;;;12.64;87.39;99246.78;4918869;29;20067;-75
2023/08/25 03:43:37;;;;;;;13.00;6.95;;;;;;;12.78;86.75;99248.28;4937490;28;20051;-73
2023/08/25 03:46:03;;;;;;;10.20;6.25;;;;;;;12.92;85.51;99255.13;4921775;28;20563;-72
2023/08/25 03:48:29;;;;;;;14.30;6.95;;;;;;;13.04;85.33;99222.78;4905325;28;20061;-73
2023/08/25 03:50:54;;;;;;;10.27;6.95;;;;;;;13.18;84.38;99245.69;4937160;28;20046;-73
2023/08/25 03:53:19;;;;;;;10.73;7.70;;;;;;;13.32;84.13;99258.66;4921121;28;20057;-72
2023/08/25 03:55:45;;;;;;;9.38;6.80;;;;;;;13.46;82.67;99249.41;4904508;28;20050;-72
2023/08/25 03:58:11;;;;;;;15.00;7.50;;;;;;;13.61;82.04;99263.25;4920963;28;20051;-72
2023/08/25 04:00:36;;;;;;;20.52;8.05;;;;;;;13.78;81.77;99249.19;4904401;28;20421;-72
2023/08/25 04:03:03;;;;;;;18.10;7.57;;;;;;;13.93;81.22;99263.88;4938316;28;20089;-73
2023/08/25 04:05:29;;;;;;;10.60;6.15;;;;;;;14.11;80.48;99272.91;4905204;28;20051;-72
2023/08/25 04:07:55;;;;;;;9.38;6.22;;;;;;;14.31;79.88;99249.63;4920786;28;20047;-73
2023/08/25 04:10:20;;;;;;;10.70;7.20;;;;;;;14.52;79.70;99249.47;4917587;29;20047;-73
2023/08/25 04:12:47;;;;;;;15.70;6.85;;;;;;;14.68;78.33;99247.03;4901782;29;20382;-72
2023/08/25 04:15:12;;;;;;;15.07;7.95;;;;;;;14.80;77.53;99253.06;4885545;29;20050;-73
2023/08/25 04:17:37;;;;;;;14.23;6.47;;;;;;;14.95;76.74;99258.81;4918819;29;20054;-72
2023/08/25 04:20:03;;;;;;;13.07;6.45;;;;;;;15.12;76.01;99252.69;4918774;29;20047;-72
2023/08/25 04:22:31;;;;;;;11.82;6.63;;;;;;;15.39;75.48;99255.38;4885530;29;20066;-75
2023/08/25 04:24:59;;;;;;;15.63;6.13;;;;;;;15.68;74.50;99270.53;4885374;29;20050;-73
2023/08/25 04:27:24;;;;;;;17.65;7.10;;;;;;;15.96;73.55;99258.72;4896747;29;20055;-75
2023/08/25 04:29:51;;;;;;;10.77;6.03;;;;;;;16.21;72.78;99260.66;4901490;29;20043;-75
2023/08/25 04:32:17;;;;;;;9.07;6.18;;;;;;;16.49;71.57;99260.53;4901561;29;20058;-75
2023/08/25 04:34:42;;;;;;;11.88;7.00;;;;;;;16.76;69.73;99246.13;4885401;29;20497;-75
2023/08/25 04:37:07;;;;;;;12.75;7.15;;;;;;;17.04;68.60;99255.72;4917108;29;20051;-76
2023/08/25 04:39:33;;;;;;;13.18;7.20;;;;;;;17.28;67.13;99258.50;4905323;29;20059;-76
2023/08/25 04:41:58;;;;;;;22.05;7.25;;;;;;;17.56;66.51;99275.31;4937898;28;20053;-75
2023/08/25 04:44:24;;;;;;;16.95;8.82;;;;;;;17.84;65.76;99285.88;4928544;28;20070;-75
2023/08/25 04:46:51;;;;;;;9.02;6.43;;;;;;;18.08;64.96;99219.34;4948457;28;20047;-75
2023/08/25 04:49:17;;;;;;;12.63;6.78;;;;;;;18.33;64.13;99265.22;4926736;28;20065;-76
2023/08/25 04:51:42;;;;;;;9.95;6.45;;;;;;;18.50;63.03;99256.97;4905887;28;20057;-77
2023/08/25 04:54:07;;;;;;;11.30;6.40;;;;;;;18.67;62.44;99267.78;4921301;28;20412;-74
2023/08/25 04:56:34;;;;;;;11.95;6.75;;;;;;;18.77;62.07;99279.22;4918467;28;20059;-74
2023/08/25 04:58:59;;;;;;;18.10;7.32;;;;;;;18.82;61.61;99257.97;4920375;28;20050;-74
2023/08/25 05:01:24;;;;;;;21.27;7.75;;;;;;;18.97;61.33;99218.41;4920089;28;20047;-74
2023/08/25 05:03:50;;;;;;;12.43;6.60;;;;;;;19.15;60.85;99283.91;4936272;28;20457;-75
2023/08/25 05:06:18;;;;;;;11.63;6.22;;;;;;;19.48;59.66;99235.13;4935805;28;20051;-76
2023/08/25 05:08:44;;;;;;;11.52;6.93;;;;;;;19.84;59.58;99257.94;4937122;28;20061;-74
2023/08/25 05:11:09;;;;;;;9.98;6.45;;;;;;;20.18;58.57;99270.25;4920211;28;20047;-74
2023/08/25 05:13:35;;;;;;;10.23;6.07;;;;;;;20.44;58.01;99286.97;4935813;28;20046;-75
2023/08/25 05:16:03;;;;;;;9.15;6.03;;;;;;;20.75;56.91;99272.53;4919804;28;20042;-74
2023/08/25 05:18:46;;;;;;;13.30;6.22;;;;;;;21.03;55.81;99265.44;4906405;28;20051;-74
2023/08/25 05:21:14;;;;;;;11.70;6.18;;;;;;;21.23;54.21;99261.19;4920051;28;20054;-75
2023/08/25 05:23:42;;;;;;;11.55;6.30;;;;;;;21.48;54.08;99269.03;4920075;28;20046;-75
2023/08/25 05:26:08;;;;;;;10.93;5.78;;;;;;;21.81;52.48;99259.44;4935646;28;20051;-74
2023/08/25 05:28:35;;;;;;;9.43;5.38;;;;;;;22.22;51.11;99235.28;4919771;28;20076;-76
2023/08/25 05:31:01;;;;;;;11.80;5.65;;;;;;;22.67;49.76;99260.34;4936365;28;20050;-74
2023/08/25 05:33:45;;;;;;;12.40;5.57;;;;;;;23.20;48.69;99261.59;4936825;28;20051;-74
2023/08/25 05:36:26;;;;;;;9.25;5.15;;;;;;;23.70;48.14;99278.66;4935438;28;20057;-76
2023/08/25 05:38:51;;;;;;;13.75;5.80;;;;;;;24.22;46.23;99261.66;4919561;28;20516;-78
2023/08/25 05:41:16;;;;;;;61.15;13.82;;;;;;;24.73;45.92;99270.09;4903643;28;20548;-77
2023/08/25 05:43:42;;;;;;;32.30;9.45;;;;;;;25.18;44.26;99265.69;4937094;28;20050;-78
2023/08/25 05:46:07;;;;;;;19.90;7.13;;;;;;;25.43;43.25;99262.25;4935547;28;20047;-77
2023/08/25 05:48:32;;;;;;;9.45;5.43;;;;;;;25.58;41.60;99269.16;4937332;28;20046;-77
2023/08/25 05:50:57;;;;;;;12.65;5.45;;;;;;;25.75;40.64;99274.16;4935314;28;20071;-78
2023/08/25 05:53:22;;;;;;;8.00;5.45;;;;;;;26.05;38.82;99264.38;4904065;28;20081;-77
2023/08/25 05:55:49;;;;;;;16.40;6.68;;;;;;;26.52;38.81;99249.38;4939239;28;20057;-78
2023/08/25 05:58:14;;;;;;;9.63;4.90;;;;;;;27.16;38.12;99261.03;4941124;28;20410;-78
2023/08/25 06:00:40;;;;;;;7.55;5.05;;;;;;;27.73;36.53;99271.59;4923288;28;20050;-78
2023/08/25 06:03:05;;;;;;;9.60;5.28;;;;;;;28.43;35.19;99263.72;4924439;28;20839;-79
2023/08/25 06:05:30;;;;;;;10.95;6.30;;;;;;;29.05;34.50;99260.59;4898979;29;20055;-78
2023/08/25 06:07:55;;;;;;;7.13;5.18;;;;;;;29.55;33.33;99267.28;4904732;29;20035;-78
2023/08/25 06:10:21;;;;;;;13.95;5.93;;;;;;;29.83;32.88;99250.00;4888719;29;20051;-79
2023/08/25 06:12:46;;;;;;;7.57;5.07;;;;;;;30.17;32.03;99259.22;4904504;29;20051;-78
2023/08/25 06:15:12;;;;;;;7.22;5.05;;;;;;;30.67;31.30;99255.75;4889173;29;20443;-79
2023/08/25 06:17:37;;;;;;;8.75;4.85;;;;;;;31.21;30.65;99259.69;4905020;29;20054;-78
2023/08/25 06:20:03;;;;;;;7.15;4.90;;;;;;;31.60;29.79;99262.44;4889924;29;20043;-79
2023/08/25 06:22:28;;;;;;;8.45;5.20;;;;;;;31.92;29.31;99254.31;4916120;28;20101;-79
2023/08/25 06:24:54;;;;;;;9.93;5.10;;;;;;;32.29;29.01;99252.53;4923924;28;20059;-78
2023/08/25 06:27:19;;;;;;;10.75;5.15;;;;;;;32.75;28.06;99253.00;4908805;28;20062;-77
2023/08/25 06:29:45;;;;;;;9.15;4.95;;;;;;;33.17;27.19;99245.59;4941895;28;20042;-78
2023/08/25 06:32:10;;;;;;;11.35;4.95;;;;;;;33.62;26.45;99247.00;4924694;28;20057;-80
2023/08/25 06:34:35;;;;;;;8.95;4.82;;;;;;;33.84;26.10;99244.06;4924253;28;20053;-81
2023/08/25 06:37:00;;;;;;;10.75;4.82;;;;;;;34.16;26.21;99247.47;4909244;28;20416;-78
2023/08/25 06:39:26;;;;;;;7.72;4.55;;;;;;;34.63;25.36;99249.25;4942409;28;20050;-79
2023/08/25 06:41:51;;;;;;;9.80;4.82;;;;;;;35.11;24.77;99234.00;4924343;28;20051;-78
2023/08/25 06:44:18;;;;;;;7.07;4.60;;;;;;;35.63;23.80;99233.63;4924467;28;20062;-77
2023/08/25 06:46:43;;;;;;;6.78;5.07;;;;;;;36.01;23.62;99226.50;4925039;28;20043;-77
2023/08/25 06:49:11;;;;;;;8.48;5.20;;;;;;;36.31;23.35;99244.97;4923945;28;20062;-78
2023/08/25 06:51:36;;;;;;;7.30;4.85;;;;;;;36.77;22.77;99241.88;4941866;28;20038;-80
2023/08/25 06:54:01;;;;;;;8.43;4.88;;;;;;;37.16;22.19;99249.31;4908697;28;20070;-80
2023/08/25 06:56:27;;;;;;;5.53;4.40;;;;;;;37.78;21.23;99257.56;4942423;28;20124;-78
2023/08/25 06:58:52;;;;;;;7.90;5.60;;;;;;;38.61;20.37;99238.59;4941601;28;20050;-79
2023/08/25 07:01:18;;;;;;;5.32;4.70;;;;;;;39.40;19.85;99236.66;4924718;28;20505;-79
2023/08/25 07:03:43;;;;;;;6.22;4.50;;;;;;;39.99;19.46;99230.19;4907182;28;20058;-75
2023/08/25 07:06:08;;;;;;;8.80;5.03;;;;;;;40.29;19.16;99203.56;4939481;28;20053;-74
2023/08/25 07:08:34;;;;;;;5.22;4.72;;;;;;;40.10;17.91;99251.16;4939536;28;20045;-74
2023/08/25 07:10:59;;;;;;;5.63;4.18;;;;;;;38.99;18.19;99231.84;4922093;28;20043;-75
2023/08/25 07:13:25;;;;;;;7.03;4.30;;;;;;;37.50;19.22;99249.25;4922240;28;20058;-76
2023/08/25 07:15:50;;;;;;;5.03;4.47;;;;;;;35.58;20.44;99243.88;4922095;28;20049;-75
2023/08/25 07:18:15;;;;;;;7.65;4.55;;;;;;;33.30;22.31;99243.47;4921805;28;20054;-78
2023/08/25 07:20:41;;;;;;;6.20;3.65;;;;;;;31.27;25.26;99242.13;4922074;28;20050;-76
2023/08/25 07:23:06;;;;;;;6.47;4.00;;;;;;;29.64;26.78;99244.91;4937785;28;20043;-77
2023/08/25 07:25:31;;;;;;;5.70;3.75;;;;;;;28.26;28.71;99256.34;4939112;28;20039;-76
2023/08/25 07:27:56;;;;;;;9.25;3.72;;;;;;;27.10;29.52;99255.38;4937767;28;20058;-75
2023/08/25 07:30:22;;;;;;;5.82;3.42;;;;;;;26.20;31.06;99251.22;4921333;28;20051;-75
2023/08/25 07:32:50;;;;;;;6.43;3.92;;;;;;;25.60;32.16;99249.84;4905745;28;20050;-75
2023/08/25 07:35:15;;;;;;;8.43;3.25;;;;;;;26.87;31.81;99257.06;4920765;28;20516;-77
2023/08/25 07:37:41;;;;;;;9.27;4.13;;;;;;;29.09;29.03;99250.81;4920745;28;20054;-75
2023/08/25 07:40:07;;;;;;;11.25;3.70;;;;;;;30.88;26.94;99251.41;4938730;28;20054;-75
2023/08/25 07:42:32;;;;;;;3.65;3.35;;;;;;;32.00;24.99;99246.41;4942408;28;20050;-75
2023/08/25 07:44:57;;;;;;;4.47;3.70;;;;;;;32.42;24.20;99248.53;4922549;28;20059;-76
2023/08/25 07:47:22;;;;;;;4.40;3.30;;;;;;;32.79;23.76;99262.44;4940214;28;20038;-80
2023/08/25 07:49:48;;;;;;;4.53;4.13;;;;;;;34.26;23.02;99243.09;4923531;28;20055;-78
2023/08/25 07:52:13;;;;;;;8.20;4.13;;;;;;;34.29;22.51;99237.84;4943344;28;20042;-78
2023/08/25 07:54:38;;;;;;;7.47;3.88;;;;;;;34.23;22.33;99242.50;4941734;28;20059;-80
2023/08/25 07:57:03;;;;;;;3.72;3.42;;;;;;;35.45;21.96;99238.94;4944896;28;20043;-79
2023/08/25 07:59:29;;;;;;;8.27;4.93;;;;;;;36.84;19.57;99195.13;4923737;28;20079;-80
2023/08/25 08:01:54;;;;;;;6.97;4.70;;;;;;;36.79;19.54;99239.66;4940792;28;20043;-81
2023/08/25 08:04:19;;;;;;;7.35;4.47;;;;;;;37.06;19.58;99197.41;4942742;28;20046;-78
2023/08/25 08:06:45;;;;;;;6.55;4.88;;;;;;;36.18;20.12;99223.38;4940458;28;20736;-77
2023/08/25 08:09:10;;;;;;;7.05;4.72;;;;;;;35.78;20.51;99234.72;4922540;28;20046;-78
2023/08/25 08:11:36;;;;;;;10.52;4.85;;;;;;;34.83;21.10;99199.41;4938510;28;20057;-76
2023/08/25 08:14:02;;;;;;;8.32;4.90;;;;;;;34.83;21.29;99235.44;4920475;28;20418;-77
2023/08/25 08:16:28;;;;;;;10.07;4.93;;;;;;;36.00;20.69;99227.66;4920362;28;20054;-78
2023/08/25 08:18:53;;;;;;;11.10;5.35;;;;;;;37.79;19.24;99225.84;4938704;28;20051;-76
2023/08/25 08:21:19;;;;;;;11.20;4.95;;;;;;;38.51;18.44;99226.47;4921897;28;20050;-77
2023/08/25 08:23:44;;;;;;;7.80;5.05;;;;;;;37.41;18.79;99240.72;4921823;28;20050;-76
2023/08/25 08:26:10;;;;;;;14.20;5.15;;;;;;;35.90;19.95;99232.41;4924296;28;20055;-79
2023/08/25 08:28:35;;;;;;;7.10;4.88;;;;;;;35.82;20.39;99228.28;4906704;28;20080;-83
2023/08/25 08:31:05;;;;;;;5.22;4.47;;;;;;;36.43;20.05;99232.69;4923266;28;20386;-80
2023/08/25 08:33:32;;;;;;;8.68;4.88;;;;;;;37.98;18.69;99188.84;4923145;28;20051;-82
2023/08/25 08:35:58;;;;;;;9.20;4.53;;;;;;;39.61;17.02;99243.53;4906752;28;20054;-84
2023/08/25 08:38:23;;;;;;;5.45;4.53;;;;;;;40.67;16.15;99219.94;4894729;29;20502;-87
2023/08/25 08:40:49;;;;;;;5.45;4.90;;;;;;;41.24;15.21;99241.41;4905302;29;20054;-84
2023/08/25 08:43:17;;;;;;;4.90;4.50;;;;;;;42.41;14.30;99229.63;4889373;29;20663;-85
2023/08/25 08:45:44;;;;;;;5.78;5.28;;;;;;;43.69;13.90;99224.88;4921511;29;20401;-84
2023/08/25 08:48:11;;;;;;;6.07;5.57;;;;;;;44.73;13.19;99246.63;4903764;29;20058;-84
2023/08/25 08:50:37;;;;;;;7.18;6.57;;;;;;;45.54;12.81;99231.91;4920434;29;20867;-85
2023/08/25 08:53:04;;;;;;;9.73;7.65;;;;;;;46.26;12.56;99235.88;4904124;29;20062;-84
2023/08/25 08:55:31;;;;;;;8.75;7.93;;;;;;;45.71;12.17;99247.75;4904746;29;20051;-86
2023/08/25 08:57:56;;;;;;;8.48;6.97;;;;;;;44.96;12.86;99221.78;4888306;29;20058;-83
2023/08/25 09:00:22;;;;;;;7.13;6.40;;;;;;;43.29;13.69;99232.81;4920021;29;20051;-84
2023/08/25 09:02:53;;;;;;;7.50;6.60;;;;;;;41.43;14.19;99243.13;4873908;29;20140;-83
2023/08/25 09:05:27;;;;;;;6.97;6.28;;;;;;;40.08;14.97;99236.66;4904214;29;20058;-83
2023/08/25 09:07:59;;;;;;;8.50;6.18;;;;;;;40.02;15.71;99237.09;4887358;29;20401;-86
2023/08/25 09:10:25;;;;;;;5.90;5.25;;;;;;;40.80;15.60;99244.25;4901090;29;20066;-78
2023/08/25 09:12:50;;;;;;;5.93;5.43;;;;;;;41.68;14.74;99222.84;4901704;29;20410;-79
2023/08/25 09:15:26;;;;;;;5.88;5.28;;;;;;;41.11;15.03;99230.28;4918517;29;20055;-78
2023/08/25 09:18:12;;;;;;;8.38;5.10;;;;;;;39.05;15.53;99211.13;4901409;29;20072;-78
2023/08/25 09:20:40;;;;;;;10.48;4.93;;;;;;;35.96;17.90;99218.22;4917988;29;20062;-79
2023/08/25 09:23:08;;;;;;;5.22;3.92;;;;;;;34.02;19.90;99229.72;4918415;29;20043;-77
2023/08/25 09:25:33;;;;;;;13.25;4.78;;;;;;;32.81;21.35;99224.34;4918976;29;20387;-78
2023/08/25 09:28:01;;;;;;;8.43;4.00;;;;;;;31.74;22.55;99225.97;4918707;28;20049;-79
2023/08/25 09:30:40;;;;;;;4.00;3.60;;;;;;;30.96;23.76;99251.81;4924492;28;20035;-76
2023/08/25 09:33:11;;;;;;;6.53;3.83;;;;;;;29.69;23.96;99234.03;4943544;29;20039;-76
2023/08/25 09:35:37;;;;;;;4.93;3.22;;;;;;;28.72;25.29;99234.53;4918854;28;20055;-77
2023/08/25 09:38:03;;;;;;;5.32;3.22;;;;;;;27.78;26.53;99225.16;4938957;28;20055;-78
2023/08/25 09:40:29;;;;;;;6.78;3.75;;;;;;;26.98;27.64;99232.56;4917046;28;20057;-78
2023/08/25 09:43:02;;;;;;;5.65;3.42;;;;;;;26.61;29.13;99242.56;4898816;29;20054;-78
2023/08/25 09:45:28;;;;;;;6.43;3.10;;;;;;;26.36;29.09;99228.88;4921544;28;20051;-79
2023/08/25 09:48:04;;;;;;;7.32;3.70;;;;;;;27.06;27.49;99223.25;4902507;28;20289;-78
2023/08/25 09:50:35;;;;;;;4.45;3.58;;;;;;;29.75;25.78;99213.81;4918310;29;20066;-79
2023/08/25 09:53:03;;;;;;;7.38;3.50;;;;;;;32.13;22.42;99217.59;4937973;28;20048;-75
2023/08/25 09:55:28;;;;;;;4.60;3.45;;;;;;;33.18;21.55;99205.78;4903398;28;20061;-76
2023/08/25 09:57:53;;;;;;;5.63;3.65;;;;;;;33.64;20.30;99195.00;4936602;28;20047;-75
2023/08/25 10:00:19;;;;;;;4.30;3.38;;;;;;;34.32;20.00;99181.94;4936723;28;20497;-76
2023/08/25 10:02:45;;;;;;;4.63;3.47;;;;;;;34.57;18.97;99176.41;4935291;28;20041;-76
2023/08/25 10:05:12;;;;;;;5.63;3.47;;;;;;;35.42;17.68;99148.03;4919348;28;20057;-77
2023/08/25 10:07:38;;;;;;;4.10;3.70;;;;;;;36.91;16.95;99159.50;4919283;28;20050;-75
2023/08/25 10:10:04;;;;;;;4.13;3.72;;;;;;;38.24;15.92;99156.75;4936513;28;20521;-75
2023/08/25 10:12:34;;;;;;;6.38;3.58;;;;;;;37.64;16.28;99206.53;4902978;28;20051;-76
2023/08/25 10:15:03;;;;;;;4.20;3.70;;;;;;;35.90;17.65;99215.75;4896473;29;20422;-76
2023/08/25 10:17:30;;;;;;;3.20;3.00;;;;;;;33.87;19.46;99204.78;4898421;29;20042;-75
2023/08/25 10:20:01;;;;;;;6.65;3.50;;;;;;;31.93;22.05;99207.19;4881335;29;20511;-79
2023/08/25 10:22:26;;;;;;;5.15;2.97;;;;;;;30.35;23.75;99211.44;4900057;29;20039;-78
2023/08/25 10:25:01;;;;;;;4.07;3.28;;;;;;;29.23;24.93;99214.63;4900933;29;20066;-80
2023/08/25 10:27:31;;;;;;;6.20;3.05;;;;;;;28.00;26.28;99208.19;4917991;29;20047;-79
2023/08/25 10:29:58;;;;;;;7.57;2.80;;;;;;;27.19;27.70;99223.13;4904382;28;20059;-79
2023/08/25 10:33:05;;;;;;;5.20;3.47;;;;;;;26.83;28.72;99217.56;4938190;28;20054;-80
2023/08/25 10:35:48;;;;;;;9.10;3.35;;;;;;;26.19;29.71;99222.22;4938502;28;20074;-78
2023/08/25 10:38:19;;;;;;;3.67;3.22;;;;;;;25.58;29.48;99220.00;4905664;28;20074;-79
2023/08/25 10:41:15;;;;;;;4.38;3.10;;;;;;;25.40;30.05;99210.84;4923563;28;20050;-78
2023/08/25 10:43:45;;;;;;;5.28;3.50;;;;;;;24.79;29.65;99214.75;4923607;28;20051;-79
2023/08/25 10:46:10;;;;;;;3.88;3.00;;;;;;;24.52;30.52;99218.50;4922821;29;20047;-79
2023/08/25 10:48:42;;;;;;;4.07;3.08;;;;;;;24.35;30.47;99217.25;4922691;29;20046;-80
2023/08/25 10:51:15;;;;;;;4.05;2.88;;;;;;;24.20;30.53;99215.53;4908396;28;20135;-80
2023/08/25 10:53:51;;;;;;;4.68;3.03;;;;;;;24.29;30.94;99213.47;4924470;28;20054;-80
2023/08/25 10:56:17;;;;;;;7.25;3.70;;;;;;;24.22;31.57;99208.03;4941390;28;20051;-79
2023/08/25 10:58:53;;;;;;;4.00;2.75;;;;;;;24.19;32.70;99213.84;4907895;28;20061;-79
2023/08/25 11:01:19;;;;;;;5.18;2.72;;;;;;;24.10;32.72;99220.53;4906619;28;20046;-74
2023/08/25 11:03:48;;;;;;;4.47;2.92;;;;;;;23.97;31.79;99215.06;4939886;28;20489;-75
2023/08/25 11:06:35;;;;;;;3.47;2.90;;;;;;;23.98;31.84;99215.91;4908346;28;20043;-78
2023/08/25 11:09:01;;;;;;;3.88;3.13;;;;;;;23.58;30.66;99213.06;4902577;29;20058;-79
2023/08/25 11:11:29;;;;;;;3.65;2.55;;;;;;;23.37;31.58;99215.84;4892715;29;20039;-77
2023/08/25 11:13:56;;;;;;;2.90;2.67;;;;;;;23.05;30.83;99199.16;4900661;29;20055;-78
2023/08/25 11:16:21;;;;;;;3.25;2.40;;;;;;;22.75;30.21;99204.00;4885034;29;20043;-78
2023/08/25 11:18:47;;;;;;;4.85;2.60;;;;;;;22.35;30.05;99204.69;4885031;29;20776;-77
2023/08/25 11:21:14;;;;;;;2.35;2.05;;;;;;;22.08;30.45;99200.91;4901186;29;20044;-77
2023/08/25 11:23:44;;;;;;;6.55;3.22;;;;;;;21.84;30.84;99207.50;4900992;29;20410;-77
2023/08/25 11:26:17;;;;;;;3.42;3.03;;;;;;;21.53;31.87;99207.78;4892572;29;20043;-73
2023/08/25 11:28:47;;;;;;;6.72;4.20;;;;;;;21.35;32.15;99205.47;4909961;29;20055;-73